Time;durP1;ratioP1;P1;durP2;ratioP2;P2;SDS_P1;SDS_P2;PMS_P1;PMS_P2;Temp;Humidity;BMP_temperature;BMP_pressure;BME280_temperature;BME280_humidity;BME280_pressure;Samples;Min_cycle;Max_cycle;Signal;HPM_P1;HPM_P2
2022/09/09 00:02:22;;;;;;;18.90;10.68;;;13.80;99.90;;;;;;5091942;27;20062;-45
2022/09/09 00:05:30;;;;;;;14.75;10.98;;;13.90;99.90;;;;;;5093596;28;20495;-46
2022/09/09 00:07:59;;;;;;;17.55;10.68;;;13.80;99.90;;;;;;5061037;28;20154;-45
2022/09/09 00:10:29;;;;;;;17.15;10.82;;;13.80;99.90;;;;;;5074771;28;20039;-47
2022/09/09 00:13:06;;;;;;;16.77;10.63;;;13.70;99.90;;;;;;5093280;27;20063;-46
2022/09/09 00:15:42;;;;;;;18.42;10.45;;;13.70;99.90;;;;;;5092629;27;20189;-49
2022/09/09 00:18:42;;;;;;;15.00;11.40;;;13.60;99.90;;;;;;5094871;28;20365;-46
2022/09/09 00:21:17;;;;;;;17.35;11.02;;;13.80;99.90;;;;;;5093071;27;20598;-46
2022/09/09 00:23:48;;;;;;;18.90;11.35;;;13.60;99.90;;;;;;5093515;27;20039;-46
2022/09/09 00:26:27;;;;;;;17.75;12.20;;;13.60;99.90;;;;;;5094423;27;20091;-45
2022/09/09 00:29:03;;;;;;;15.57;11.73;;;13.60;99.90;;;;;;5093324;27;24303;-45
2022/09/09 00:31:31;;;;;;;24.58;12.55;;;13.70;99.90;;;;;;5089139;27;20067;-46
2022/09/09 00:34:12;;;;;;;17.63;11.38;;;13.40;99.90;;;;;;5092612;28;20795;-46
2022/09/09 00:36:39;;;;;;;22.38;12.82;;;13.70;99.90;;;;;;5091243;27;20381;-44
2022/09/09 00:39:06;;;;;;;18.80;12.40;;;13.30;99.90;;;;;;5093301;27;20150;-44
2022/09/09 00:41:34;;;;;;;16.77;12.52;;;13.40;99.90;;;;;;5092906;27;20031;-44
2022/09/09 00:44:11;;;;;;;15.63;11.50;;;13.40;99.90;;;;;;5092966;28;20890;-45
2022/09/09 00:47:25;;;;;;;17.73;11.82;;;13.50;99.90;;;;;;5092514;27;20047;-46
2022/09/09 00:50:11;;;;;;;15.27;10.30;;;13.30;99.90;;;;;;5084039;27;20113;-44
2022/09/09 00:52:54;;;;;;;15.30;11.15;;;13.80;99.90;;;;;;5093292;27;20048;-48
2022/09/09 00:55:25;;;;;;;;;;;13.20;99.90;;;;;;5094929;27;20082;-49
2022/09/09 00:57:52;;;;;;;23.45;13.07;;;13.30;99.90;;;;;;5091861;28;19930;-46
2022/09/09 01:00:27;;;;;;;21.08;12.27;;;13.30;99.90;;;;;;5093981;28;20058;-44
2022/09/09 01:03:15;;;;;;;21.27;13.20;;;13.30;99.90;;;;;;5093157;27;20176;-45
2022/09/09 01:05:54;;;;;;;20.75;11.88;;;13.30;99.90;;;;;;5091912;28;20043;-46
2022/09/09 01:08:34;;;;;;;22.27;11.98;;;13.20;99.90;;;;;;5092589;27;20582;-46
2022/09/09 01:11:02;;;;;;;17.88;12.05;;;13.20;99.90;;;;;;5093449;27;20039;-44
2022/09/09 01:13:34;;;;;;;23.67;12.60;;;13.10;99.90;;;;;;5092208;28;20027;-47
2022/09/09 01:16:05;;;;;;;21.40;11.95;;;13.10;99.90;;;;;;5092209;28;20379;-45
2022/09/09 01:18:42;;;;;;;18.33;12.13;;;13.10;99.90;;;;;;5092129;28;20065;-47
2022/09/09 01:21:51;;;;;;;19.27;11.52;;;13.10;99.90;;;;;;5092106;28;20409;-47
2022/09/09 01:24:40;;;;;;;17.85;11.32;;;13.20;99.90;;;;;;5092370;28;20104;-47
2022/09/09 01:27:07;;;;;;;16.88;11.63;;;13.00;99.90;;;;;;5090930;27;20047;-47
2022/09/09 01:29:33;;;;;;;22.92;12.52;;;13.00;99.90;;;;;;5092566;28;20043;-51
2022/09/09 01:32:01;;;;;;;17.60;11.82;;;13.80;99.90;;;;;;5092948;28;20058;-47
2022/09/09 01:34:31;;;;;;;16.83;12.75;;;14.40;99.90;;;;;;5092619;28;20460;-49
2022/09/09 01:37:10;;;;;;;25.10;12.75;;;12.90;99.90;;;;;;5091650;28;20144;-47
2022/09/09 01:39:38;;;;;;;21.38;11.95;;;13.00;99.90;;;;;;5093079;28;20093;-49
2022/09/09 01:42:07;;;;;;;16.90;12.10;;;13.00;99.90;;;;;;5092026;28;20514;-49
2022/09/09 01:44:35;;;;;;;15.65;10.25;;;13.00;99.90;;;;;;5093110;28;20039;-46
2022/09/09 01:47:01;;;;;;;21.70;11.15;;;13.00;99.90;;;;;;5092558;28;20091;-47
2022/09/09 01:49:27;;;;;;;21.80;11.00;;;12.90;99.90;;;;;;5091218;28;20067;-49
2022/09/09 01:51:55;;;;;;;18.45;11.68;;;13.00;99.90;;;;;;5092809;28;20086;-50
2022/09/09 01:54:23;;;;;;;20.40;11.70;;;12.80;99.90;;;;;;5092068;28;20038;-50
2022/09/09 01:57:04;;;;;;;13.88;9.90;;;13.00;99.90;;;;;;5092532;28;20055;-50
2022/09/09 01:59:51;;;;;;;13.43;10.50;;;13.50;99.90;;;;;;5095395;28;20104;-46
2022/09/09 02:02:18;;;;;;;18.50;11.30;;;13.00;99.90;;;;;;5095949;27;20087;-47
2022/09/09 02:04:56;;;;;;;20.73;11.13;;;12.90;99.90;;;;;;5094624;28;20811;-48
2022/09/09 02:07:33;;;;;;;14.98;10.82;;;13.10;99.90;;;;;;5096433;27;20043;-45
2022/09/09 02:10:09;;;;;;;25.55;12.45;;;13.00;99.90;;;;;;5095661;27;20058;-48
2022/09/09 02:12:37;;;;;;;23.45;11.88;;;13.10;99.90;;;;;;5095236;27;20453;-45
2022/09/09 02:15:16;;;;;;;16.27;12.00;;;13.10;99.90;;;;;;5095938;27;20039;-51
2022/09/09 02:17:42;;;;;;;14.07;10.90;;;13.20;99.90;;;;;;5093716;27;20031;-46
2022/09/09 02:20:12;;;;;;;24.85;12.65;;;13.10;99.90;;;;;;5094778;27;20058;-46
2022/09/09 02:22:43;;;;;;;19.40;12.73;;;13.10;99.90;;;;;;5094201;27;20118;-46
2022/09/09 02:25:12;;;;;;;28.85;12.48;;;13.60;99.90;;;;;;5096126;27;20040;-49
2022/09/09 02:27:40;;;;;;;22.20;13.40;;;13.20;99.90;;;;;;5095161;27;20055;-45
2022/09/09 02:30:07;;;;;;;26.23;13.30;;;13.40;99.90;;;;;;5095881;28;20065;-51
2022/09/09 02:32:35;;;;;;;22.33;13.65;;;13.40;99.90;;;;;;5095328;27;20040;-49
2022/09/09 02:35:09;;;;;;;19.88;13.27;;;13.30;99.90;;;;;;5128014;27;20110;-49
2022/09/09 02:37:41;;;;;;;23.33;14.68;;;13.40;99.90;;;;;;5095408;27;20031;-51
2022/09/09 02:40:10;;;;;;;20.45;13.05;;;13.20;99.90;;;;;;5095498;27;20047;-44
2022/09/09 02:42:45;;;;;;;25.88;15.15;;;13.30;99.90;;;;;;5095582;27;20039;-45
2022/09/09 02:45:15;;;;;;;22.92;14.10;;;13.40;99.90;;;;;;5093887;27;20052;-46
2022/09/09 02:47:44;;;;;;;21.65;13.52;;;13.40;99.90;;;;;;5095546;27;20047;-49
2022/09/09 02:50:14;;;;;;;26.27;14.77;;;13.50;99.90;;;;;;5094394;28;20108;-45
2022/09/09 02:53:05;;;;;;;23.08;13.25;;;13.50;99.90;;;;;;5094325;27;20111;-45
2022/09/09 02:55:50;;;;;;;27.35;14.85;;;13.50;99.90;;;;;;5096296;27;20054;-46
2022/09/09 02:58:18;;;;;;;19.17;13.75;;;13.50;99.90;;;;;;5095259;27;20396;-48
2022/09/09 03:00:48;;;;;;;23.48;14.55;;;13.60;99.90;;;;;;5095811;27;20051;-46
2022/09/09 03:03:16;;;;;;;27.05;15.68;;;13.60;99.90;;;;;;5095780;27;20047;-51
2022/09/09 03:05:43;;;;;;;26.27;15.20;;;13.60;99.90;;;;;;5094770;27;20063;-47
2022/09/09 03:08:09;;;;;;;22.58;15.00;;;13.60;99.90;;;;;;5095269;27;20069;-45
2022/09/09 03:10:35;;;;;;;27.02;15.55;;;15.00;99.90;;;;;;5093132;28;20047;-49
2022/09/09 03:13:01;;;;;;;28.98;16.55;;;13.50;99.90;;;;;;5096113;27;20042;-49
2022/09/09 03:15:30;;;;;;;22.58;15.20;;;13.40;99.90;;;;;;5095178;27;20043;-49
2022/09/09 03:17:57;;;;;;;28.17;16.08;;;13.50;99.90;;;;;;5093761;27;20043;-46
2022/09/09 03:20:28;;;;;;;26.15;16.00;;;13.70;99.90;;;;;;5094590;27;20077;-49
2022/09/09 03:22:56;;;;;;;28.08;17.08;;;13.80;99.90;;;;;;5093778;27;20058;-45
2022/09/09 03:25:26;;;;;;;19.38;14.52;;;13.60;99.90;;;;;;5095414;28;20046;-48
2022/09/09 03:27:54;;;;;;;24.95;14.10;;;13.60;99.90;;;;;;5095538;27;20051;-46
2022/09/09 03:30:21;;;;;;;29.85;16.10;;;13.60;99.90;;;;;;5095633;27;20166;-46
2022/09/09 03:32:47;;;;;;;28.25;14.48;;;13.60;99.90;;;;;;5093314;27;20118;-47
2022/09/09 03:35:13;;;;;;;25.85;14.32;;;13.70;99.90;;;;;;5093368;27;20047;-46
2022/09/09 03:37:39;;;;;;;23.27;14.43;;;13.70;99.90;;;;;;5093852;27;24058;-46
2022/09/09 03:40:06;;;;;;;28.80;13.82;;;13.50;99.90;;;;;;5095283;27;20036;-48
2022/09/09 03:42:31;;;;;;;22.77;13.90;;;13.60;99.90;;;;;;5094133;27;20655;-48
2022/09/09 03:44:59;;;;;;;20.42;13.00;;;15.60;99.90;;;;;;5092959;27;20036;-49
2022/09/09 03:47:25;;;;;;;21.33;12.38;;;13.50;99.90;;;;;;5093120;27;20059;-52
2022/09/09 03:49:51;;;;;;;20.63;12.38;;;13.60;99.90;;;;;;5094844;27;20624;-45
2022/09/09 03:52:18;;;;;;;24.15;13.30;;;13.50;99.90;;;;;;5093519;27;20048;-47
2022/09/09 03:54:43;;;;;;;19.23;12.48;;;11.40;99.90;;;;;;5094011;27;20040;-45
2022/09/09 03:57:10;;;;;;;20.75;11.77;;;13.50;99.90;;;;;;5095223;27;20039;-48
2022/09/09 03:59:36;;;;;;;21.10;11.68;;;13.60;99.90;;;;;;5093800;28;20042;-49
2022/09/09 04:02:02;;;;;;;17.63;12.55;;;15.50;99.90;;;;;;5095177;27;20041;-48
2022/09/09 04:04:28;;;;;;;18.60;12.25;;;13.60;99.90;;;;;;5093211;27;20048;-47
2022/09/09 04:06:54;;;;;;;18.02;11.65;;;13.40;99.90;;;;;;5094023;27;20799;-47
2022/09/09 04:09:19;;;;;;;29.15;12.82;;;13.50;99.90;;;;;;5094333;27;20047;-48
2022/09/09 04:11:46;;;;;;;19.88;12.52;;;13.40;99.90;;;;;;5093447;27;20038;-50
2022/09/09 04:14:12;;;;;;;20.02;12.35;;;13.60;99.90;;;;;;5092469;27;20039;-46
2022/09/09 04:16:38;;;;;;;18.35;10.32;;;13.50;99.90;;;;;;5093821;27;20051;-48
2022/09/09 04:19:06;;;;;;;15.63;10.27;;;15.70;99.90;;;;;;5094448;27;20112;-48
2022/09/09 04:21:32;;;;;;;15.07;10.35;;;13.50;99.90;;;;;;5094327;27;20138;-48
2022/09/09 04:23:58;;;;;;;16.42;11.02;;;13.70;99.90;;;;;;5094467;27;20065;-46
2022/09/09 04:26:24;;;;;;;18.00;10.57;;;14.60;99.90;;;;;;5094221;27;20069;-49
2022/09/09 04:28:50;;;;;;;13.93;9.35;;;13.80;99.90;;;;;;5093947;27;20427;-48
2022/09/09 04:31:22;;;;;;;20.00;10.82;;;13.80;99.90;;;;;;5094675;27;20050;-47
2022/09/09 04:33:49;;;;;;;17.13;10.25;;;13.70;99.90;;;;;;5094981;28;20852;-47
2022/09/09 04:36:15;;;;;;;18.33;10.18;;;13.70;99.90;;;;;;5093680;27;20467;-46
2022/09/09 04:38:41;;;;;;;14.55;9.85;;;15.30;99.90;;;;;;5093372;28;20035;-48
2022/09/09 04:41:07;;;;;;;17.38;10.85;;;13.80;99.90;;;;;;5093552;27;20044;-46
2022/09/09 04:43:34;;;;;;;19.25;10.68;;;13.90;99.90;;;;;;5093237;28;20085;-48
2022/09/09 04:46:00;;;;;;;13.52;9.85;;;13.80;99.90;;;;;;5093520;27;20039;-46
2022/09/09 04:48:26;;;;;;;21.95;11.32;;;16.00;99.90;;;;;;5091843;27;20050;-48
2022/09/09 04:50:56;;;;;;;23.63;11.32;;;14.30;99.90;;;;;;5091884;27;20138;-47
2022/09/09 04:53:22;;;;;;;15.13;10.50;;;13.90;99.90;;;;;;5092078;27;20111;-47
2022/09/09 04:55:49;;;;;;;22.52;10.20;;;14.00;99.90;;;;;;5093361;28;20051;-46
2022/09/09 04:58:15;;;;;;;19.90;10.13;;;13.80;99.90;;;;;;5093937;27;20139;-49
2022/09/09 05:00:41;;;;;;;23.60;12.80;;;13.80;99.90;;;;;;5091543;27;20496;-46
2022/09/09 05:03:08;;;;;;;16.45;10.43;;;14.00;99.90;;;;;;5091722;27;20048;-47
2022/09/09 05:05:34;;;;;;;21.17;11.38;;;13.90;99.90;;;;;;5091274;27;20050;-46
2022/09/09 05:08:04;;;;;;;24.75;12.00;;;14.10;99.90;;;;;;5092210;27;20043;-45
2022/09/09 05:10:31;;;;;;;20.70;11.82;;;13.80;99.90;;;;;;5092018;28;20104;-46
2022/09/09 05:12:56;;;;;;;16.77;11.50;;;14.00;99.90;;;;;;5092556;28;20055;-47
2022/09/09 05:15:23;;;;;;;17.70;10.65;;;13.90;99.90;;;;;;5091882;28;20571;-47
2022/09/09 05:17:48;;;;;;;18.05;11.32;;;13.80;99.90;;;;;;5091400;27;20040;-48
2022/09/09 05:20:14;;;;;;;16.98;12.18;;;14.00;99.90;;;;;;5091197;28;20081;-48
2022/09/09 05:22:40;;;;;;;19.20;12.35;;;13.90;99.90;;;;;;5092333;28;20035;-49
2022/09/09 05:25:07;;;;;;;20.98;12.10;;;14.50;99.90;;;;;;5092482;28;20449;-49
2022/09/09 05:27:34;;;;;;;21.95;11.82;;;14.10;99.90;;;;;;5092164;28;20135;-50
2022/09/09 05:30:00;;;;;;;18.58;11.48;;;14.10;99.90;;;;;;5091415;28;20716;-46
2022/09/09 05:32:26;;;;;;;17.65;11.18;;;14.00;99.90;;;;;;5092193;27;20043;-48
2022/09/09 05:34:52;;;;;;;19.83;12.25;;;14.00;99.90;;;;;;5090174;28;20047;-48
2022/09/09 05:37:18;;;;;;;16.67;10.05;;;13.90;99.90;;;;;;5091359;28;20448;-47
2022/09/09 05:39:44;;;;;;;22.17;12.65;;;14.70;99.90;;;;;;5092591;28;20499;-47
2022/09/09 05:42:10;;;;;;;20.00;12.98;;;14.10;99.90;;;;;;5092117;28;20078;-47
2022/09/09 05:44:37;;;;;;;17.02;11.23;;;14.00;99.90;;;;;;5090719;28;20047;-47
2022/09/09 05:47:03;;;;;;;22.30;12.35;;;14.00;99.90;;;;;;5089947;28;20104;-45
2022/09/09 05:49:28;;;;;;;18.77;12.02;;;14.00;99.90;;;;;;5092523;28;20287;-48
2022/09/09 05:51:54;;;;;;;16.45;11.85;;;14.00;99.90;;;;;;5091709;27;20120;-47
2022/09/09 05:54:20;;;;;;;20.15;12.65;;;14.10;99.90;;;;;;5091886;28;20772;-47
2022/09/09 05:56:46;;;;;;;16.90;12.00;;;14.00;99.90;;;;;;5093047;27;20036;-50
2022/09/09 05:59:12;;;;;;;21.55;13.35;;;14.00;99.90;;;;;;5092828;28;20039;-46
2022/09/09 06:01:42;;;;;;;14.65;11.73;;;14.10;99.90;;;;;;5091614;28;20093;-48
2022/09/09 06:04:08;;;;;;;19.38;12.23;;;14.10;99.90;;;;;;5092073;28;20074;-47
2022/09/09 06:06:36;;;;;;;17.00;11.52;;;14.20;99.90;;;;;;5091569;28;20049;-45
2022/09/09 06:09:06;;;;;;;20.63;12.00;;;14.00;99.90;;;;;;5090577;28;20059;-47
2022/09/09 06:11:33;;;;;;;18.55;11.80;;;14.20;99.90;;;;;;5090819;28;20492;-47
2022/09/09 06:13:59;;;;;;;17.85;11.55;;;14.30;99.90;;;;;;5091760;28;20499;-48
2022/09/09 06:16:27;;;;;;;17.80;11.82;;;14.80;99.90;;;;;;5090099;28;20039;-46
2022/09/09 06:18:54;;;;;;;19.63;12.52;;;14.20;99.90;;;;;;5090955;28;20399;-50
2022/09/09 06:21:21;;;;;;;16.88;11.90;;;14.20;99.90;;;;;;5092114;28;20086;-47
2022/09/09 06:23:47;;;;;;;14.95;10.68;;;14.30;99.90;;;;;;5092414;28;20085;-48
2022/09/09 06:26:19;;;;;;;18.30;11.80;;;14.50;99.90;;;;;;5091665;28;20093;-46
2022/09/09 06:28:47;;;;;;;18.25;12.15;;;14.20;99.90;;;;;;5091432;28;20089;-47
2022/09/09 06:31:17;;;;;;;16.40;11.23;;;14.50;99.90;;;;;;5091091;28;20131;-49
2022/09/09 06:33:44;;;;;;;12.60;9.25;;;14.90;99.90;;;;;;5091435;28;20054;-47
2022/09/09 06:36:22;;;;;;;15.50;10.80;;;15.10;99.90;;;;;;5090854;28;20131;-48
2022/09/09 06:38:48;;;;;;;14.77;9.70;;;15.00;99.90;;;;;;5091079;28;21565;-48
2022/09/09 06:41:17;;;;;;;14.75;8.45;;;15.30;99.90;;;;;;5091399;28;20130;-46
2022/09/09 06:43:42;;;;;;;16.25;8.88;;;13.80;99.90;;;;;;5090956;27;20116;-46
2022/09/09 06:46:14;;;;;;;13.90;8.82;;;15.20;99.90;;;;;;5094745;28;20323;-46
2022/09/09 06:48:41;;;;;;;12.13;8.82;;;15.20;99.90;;;;;;5094168;27;20047;-47
2022/09/09 06:51:28;;;;;;;10.23;7.72;;;15.00;99.90;;;;;;5094427;28;20508;-45
2022/09/09 06:53:56;;;;;;;16.83;8.32;;;15.00;99.90;;;;;;5094945;27;20130;-46
2022/09/09 06:56:31;;;;;;;12.43;8.65;;;14.80;99.90;;;;;;5094832;27;20389;-46
2022/09/09 06:59:00;;;;;;;11.73;8.30;;;14.70;99.90;;;;;;5095459;27;20075;-48
2022/09/09 07:01:30;;;;;;;14.95;8.85;;;14.90;99.90;;;;;;5094623;27;20039;-46
2022/09/09 07:03:58;;;;;;;11.48;8.25;;;14.90;99.90;;;;;;5094383;27;20031;-47
2022/09/09 07:06:34;;;;;;;12.65;8.38;;;14.70;99.90;;;;;;5094163;27;20416;-47
2022/09/09 07:09:08;;;;;;;13.70;8.68;;;14.70;99.90;;;;;;5094386;28;20043;-46
2022/09/09 07:11:47;;;;;;;11.18;8.07;;;14.80;99.90;;;;;;5094649;27;20093;-45
2022/09/09 07:14:14;;;;;;;14.90;8.90;;;14.80;99.90;;;;;;5094367;28;20047;-49
2022/09/09 07:16:44;;;;;;;12.90;8.52;;;14.80;99.90;;;;;;5093479;27;20031;-46
2022/09/09 07:19:11;;;;;;;15.75;9.18;;;14.80;99.90;;;;;;5094993;27;20051;-48
2022/09/09 07:21:37;;;;;;;13.00;9.23;;;15.60;99.90;;;;;;5094336;27;20058;-44
2022/09/09 07:24:03;;;;;;;17.27;8.70;;;14.90;99.90;;;;;;5093481;27;20047;-50
2022/09/09 07:26:30;;;;;;;11.20;7.45;;;14.90;99.90;;;;;;5092936;27;20117;-50
2022/09/09 07:28:56;;;;;;;10.55;7.60;;;15.00;99.90;;;;;;5092403;27;20067;-45
2022/09/09 07:31:26;;;;;;;10.55;7.45;;;15.40;99.90;;;;;;5093772;27;20039;-50
2022/09/09 07:33:52;;;;;;;12.43;7.63;;;15.20;99.90;;;;;;5094192;28;20347;-48
2022/09/09 07:36:25;;;;;;;12.93;7.65;;;15.30;99.90;;;;;;5094189;27;20036;-47
2022/09/09 07:38:54;;;;;;;10.68;7.70;;;15.50;99.90;;;;;;5094258;27;20125;-45
2022/09/09 07:41:47;;;;;;;11.70;7.78;;;15.40;99.90;;;;;;5093595;28;20189;-46
2022/09/09 07:44:18;;;;;;;15.95;8.32;;;15.40;99.90;;;;;;5090174;28;20083;-45
2022/09/09 07:46:45;;;;;;;9.18;6.97;;;15.60;99.90;;;;;;5093344;27;20076;-49
2022/09/09 07:49:12;;;;;;;11.50;7.38;;;15.70;99.90;;;;;;5094198;27;20048;-44
2022/09/09 07:51:40;;;;;;;11.05;6.97;;;15.70;99.90;;;;;;5094058;27;20089;-49
2022/09/09 07:54:09;;;;;;;9.60;6.22;;;15.80;99.90;;;;;;5092013;27;20047;-46
2022/09/09 07:56:36;;;;;;;9.85;6.45;;;15.70;99.90;;;;;;5093865;28;20082;-48
2022/09/09 07:59:04;;;;;;;12.77;6.28;;;15.70;99.90;;;;;;5094740;27;20460;-45
2022/09/09 08:01:55;;;;;;;9.63;6.15;;;15.80;99.90;;;;;;5094090;27;20071;-45
2022/09/09 08:04:22;;;;;;;10.47;6.13;;;15.90;99.90;;;;;;5093704;27;20488;-46
2022/09/09 08:06:54;;;;;;;11.48;6.93;;;15.90;99.90;;;;;;5094747;27;20047;-46
2022/09/09 08:09:21;;;;;;;18.58;6.85;;;15.80;99.90;;;;;;5093853;27;20051;-49
2022/09/09 08:11:47;;;;;;;8.85;5.90;;;15.80;99.90;;;;;;5094132;27;20110;-47
2022/09/09 08:14:13;;;;;;;10.45;6.30;;;15.80;99.90;;;;;;5093657;28;20046;-47
2022/09/09 08:16:42;;;;;;;8.45;6.00;;;15.80;99.90;;;;;;5094584;28;20410;-47
2022/09/09 08:19:08;;;;;;;9.73;6.00;;;16.10;99.90;;;;;;5095185;28;20039;-45
2022/09/09 08:21:37;;;;;;;13.20;6.40;;;16.00;99.90;;;;;;5093400;28;20356;-46
2022/09/09 08:24:04;;;;;;;13.43;6.00;;;16.10;99.90;;;;;;5091938;27;20726;-45
2022/09/09 08:26:37;;;;;;;10.82;5.60;;;16.20;99.90;;;;;;5094139;27;20054;-45
2022/09/09 08:29:04;;;;;;;11.88;5.15;;;16.10;99.90;;;;;;5094842;27;20031;-46
2022/09/09 08:31:39;;;;;;;13.27;5.95;;;16.20;99.90;;;;;;5094953;27;20125;-46
2022/09/09 08:34:07;;;;;;;13.65;4.93;;;16.30;99.90;;;;;;5092269;27;20036;-47
2022/09/09 08:36:38;;;;;;;9.85;5.30;;;16.70;99.90;;;;;;5092758;27;20148;-47
2022/09/09 08:39:06;;;;;;;9.68;5.25;;;16.60;99.90;;;;;;5093921;27;20047;-45
2022/09/09 08:41:38;;;;;;;9.90;4.95;;;16.90;99.90;;;;;;5092021;27;20491;-46
2022/09/09 08:44:14;;;;;;;8.70;4.63;;;17.00;99.90;;;;;;5092751;28;20940;-47
2022/09/09 08:47:21;;;;;;;10.60;5.25;;;17.20;99.90;;;;;;5092389;27;20039;-45
2022/09/09 08:50:33;;;;;;;10.55;5.18;;;17.40;99.90;;;;;;5078670;27;20091;-45
2022/09/09 08:53:02;;;;;;;;;;;17.60;99.90;;;;;;5092871;27;20419;-49
2022/09/09 08:55:58;;;;;;;10.70;4.90;;;17.40;99.90;;;;;;5092987;27;19943;-47
2022/09/09 08:58:30;;;;;;;9.18;4.57;;;17.60;99.90;;;;;;5092232;27;20130;-51
2022/09/09 09:01:08;;;;;;;;;;;17.70;99.90;;;;;;5092114;27;20108;-49
2022/09/09 09:03:53;;;;;;;11.05;4.30;;;18.10;99.90;;;;;;5090907;28;19927;-47
2022/09/09 09:06:26;;;;;;;9.90;4.30;;;18.00;99.90;;;;;;5092540;27;20044;-48
2022/09/09 09:09:07;;;;;;;16.90;4.90;;;18.10;99.90;;;;;;5090961;28;20270;-48
2022/09/09 09:11:46;;;;;;;9.63;4.45;;;18.30;99.90;;;;;;5091115;27;20073;-44
2022/09/09 09:14:23;;;;;;;12.68;3.53;;;18.30;99.90;;;;;;5091863;28;20039;-47
2022/09/09 09:17:03;;;;;;;9.80;3.92;;;18.30;99.90;;;;;;5090997;28;20059;-47
2022/09/09 09:19:32;;;;;;;10.32;3.67;;;18.10;99.90;;;;;;5093088;28;20138;-47
2022/09/09 09:22:06;;;;;;;15.00;4.15;;;18.30;99.90;;;;;;5092743;28;20590;-45
2022/09/09 09:24:51;;;;;;;8.93;3.65;;;18.20;99.90;;;;;;5092710;28;20136;-49
2022/09/09 09:27:45;;;;;;;8.52;3.33;;;18.30;99.90;;;;;;5092986;28;20036;-46
2022/09/09 09:30:26;;;;;;;12.95;3.92;;;18.50;99.90;;;;;;5061420;28;20097;-48
2022/09/09 09:33:03;;;;;;;8.40;3.22;;;18.60;99.90;;;;;;5091834;28;20051;-48
2022/09/09 09:35:28;;;;;;;9.98;4.22;;;18.40;99.90;;;;;;5093576;28;20488;-48
2022/09/09 09:37:54;;;;;;;12.90;4.35;;;18.20;99.90;;;;;;5092484;28;20035;-45
2022/09/09 09:40:23;;;;;;;10.65;3.00;;;18.50;99.90;;;;;;5092351;28;20051;-46
2022/09/09 09:42:56;;;;;;;13.20;3.35;;;18.30;99.90;;;;;;5092692;28;21325;-45
2022/09/09 09:45:41;;;;;;;22.90;4.18;;;18.20;99.90;;;;;;5092108;27;20385;-44
2022/09/09 09:48:12;;;;;;;8.68;2.97;;;18.10;99.90;;;;;;5093863;28;20050;-47
2022/09/09 09:50:50;;;;;;;15.50;3.15;;;18.00;99.90;;;;;;5092769;28;20056;-43
2022/09/09 09:53:31;;;;;;;11.90;3.00;;;17.90;99.90;;;;;;5091354;28;20109;-45
2022/09/09 09:56:06;;;;;;;10.00;2.97;;;17.70;99.90;;;;;;5091938;28;20675;-47
2022/09/09 09:58:54;;;;;;;13.48;3.47;;;17.80;99.90;;;;;;5092897;28;20514;-48
2022/09/09 10:01:33;;;;;;;11.85;2.80;;;17.80;99.90;;;;;;5091349;28;20129;-45
2022/09/09 10:04:20;;;;;;;7.32;2.65;;;17.60;99.90;;;;;;5089659;28;20035;-47
2022/09/09 10:06:46;;;;;;;13.82;3.08;;;17.70;99.90;;;;;;5090452;28;20055;-48
2022/09/09 10:09:26;;;;;;;9.88;2.80;;;17.60;99.90;;;;;;5091535;28;20522;-45
2022/09/09 10:12:04;;;;;;;16.67;3.22;;;17.60;99.90;;;;;;5091245;28;20058;-45
2022/09/09 10:14:46;;;;;;;14.10;3.47;;;17.50;99.90;;;;;;5091512;28;20044;-46
2022/09/09 10:17:27;;;;;;;11.95;3.20;;;17.50;99.90;;;;;;5091436;28;20046;-46
2022/09/09 10:20:27;;;;;;;12.10;3.50;;;17.70;99.90;;;;;;5094015;27;20055;-44
2022/09/09 10:23:25;;;;;;;18.45;3.17;;;17.70;99.90;;;;;;5094824;27;20039;-49
2022/09/09 10:26:16;;;;;;;10.88;3.10;;;17.90;99.90;;;;;;5086559;27;20048;-46
2022/09/09 10:28:42;;;;;;;8.13;3.13;;;17.90;99.90;;;;;;5095945;27;20066;-47
2022/09/09 10:31:31;;;;;;;11.00;2.60;;;18.60;99.90;;;;;;5096048;27;20044;-45
2022/09/09 10:34:35;;;;;;;8.73;2.35;;;18.80;99.90;;;;;;5093712;27;20040;-45
2022/09/09 10:37:11;;;;;;;9.18;2.05;;;18.80;99.90;;;;;;5038245;28;20052;-45
2022/09/09 10:39:42;;;;;;;6.80;1.85;;;18.80;99.90;;;;;;5094958;27;20039;-48
2022/09/09 10:42:16;;;;;;;10.87;2.23;;;18.80;99.90;;;;;;5093849;27;20039;-45
2022/09/09 10:44:58;;;;;;;9.18;2.10;;;18.60;99.90;;;;;;5095701;28;20346;-48
2022/09/09 10:47:38;;;;;;;9.55;2.13;;;18.80;99.90;;;;;;5094542;28;20124;-47
2022/09/09 10:50:19;;;;;;;9.35;1.88;;;18.80;99.90;;;;;;5094928;28;20465;-45
2022/09/09 10:53:15;;;;;;;8.90;2.42;;;18.80;99.90;;;;;;5094545;28;20126;-46
2022/09/09 10:55:44;;;;;;;7.25;1.88;;;19.00;99.90;;;;;;5092731;27;20039;-46
2022/09/09 10:58:14;;;;;;;8.60;2.13;;;19.70;99.90;;;;;;5095972;27;20301;-46
2022/09/09 11:00:46;;;;;;;9.95;1.80;;;18.90;99.90;;;;;;5095415;27;20849;-45
2022/09/09 11:03:25;;;;;;;9.48;1.98;;;18.90;99.90;;;;;;5095558;27;20040;-46
2022/09/09 11:06:04;;;;;;;9.80;1.77;;;19.20;99.90;;;;;;5093033;27;20043;-47
2022/09/09 11:08:33;;;;;;;8.40;1.67;;;19.10;99.90;;;;;;5094190;28;20043;-44
2022/09/09 11:11:13;;;;;;;9.73;1.77;;;19.00;99.90;;;;;;5094168;27;20035;-48
2022/09/09 11:13:42;;;;;;;8.55;2.00;;;19.30;99.90;;;;;;5093812;27;20211;-48
2022/09/09 11:16:33;;;;;;;7.63;1.88;;;19.00;99.90;;;;;;5091395;27;20507;-46
2022/09/09 11:19:11;;;;;;;9.00;2.45;;;19.10;99.90;;;;;;5094151;27;20062;-48
2022/09/09 11:21:48;;;;;;;12.65;2.15;;;18.60;99.90;;;;;;5092655;27;20441;-45
2022/09/09 11:24:19;;;;;;;10.32;1.98;;;18.90;99.90;;;;;;5092747;27;20496;-47
2022/09/09 11:26:54;;;;;;;;;;;19.60;99.90;;;;;;5093202;27;20089;-45
2022/09/09 11:29:38;;;;;;;9.35;2.22;;;19.70;99.90;;;;;;5094627;27;19924;-49
2022/09/09 11:32:09;;;;;;;10.82;2.08;;;21.70;99.90;;;;;;5093019;27;20051;-48
2022/09/09 11:35:01;;;;;;;8.27;1.80;;;20.10;99.90;;;;;;5094757;27;20043;-50
2022/09/09 11:37:51;;;;;;;11.85;1.58;;;20.00;99.90;;;;;;5088807;27;20051;-47
2022/09/09 11:40:30;;;;;;;8.13;1.63;;;20.00;99.90;;;;;;5094198;27;20039;-44
2022/09/09 11:43:05;;;;;;;6.22;1.48;;;19.90;99.90;;;;;;5093593;27;20514;-48
2022/09/09 11:45:33;;;;;;;6.57;1.85;;;19.70;99.90;;;;;;5094776;27;20499;-45
2022/09/09 11:48:00;;;;;;;5.65;1.48;;;19.50;99.90;;;;;;5091223;27;20534;-45
2022/09/09 11:50:29;;;;;;;8.13;1.70;;;19.60;99.90;;;;;;5094128;27;20111;-44
2022/09/09 11:53:22;;;;;;;7.88;1.65;;;19.60;99.90;;;;;;5093028;27;20051;-46
2022/09/09 11:56:09;;;;;;;9.07;1.80;;;19.60;99.90;;;;;;5091789;28;20423;-48
2022/09/09 11:58:41;;;;;;;7.72;1.60;;;19.70;99.90;;;;;;5094031;28;20083;-48
2022/09/09 12:01:34;;;;;;;8.15;1.60;;;19.80;99.90;;;;;;5092333;27;20411;-43
2022/09/09 12:04:09;;;;;;;7.00;1.65;;;19.60;99.90;;;;;;5093063;27;20070;-45
2022/09/09 12:06:50;;;;;;;8.77;1.77;;;19.70;99.90;;;;;;5093074;27;20048;-49
2022/09/09 12:10:04;;;;;;;9.00;1.80;;;19.70;99.90;;;;;;5092905;27;20048;-44
2022/09/09 12:12:36;;;;;;;6.88;1.67;;;19.40;99.90;;;;;;5082516;27;20343;-46
2022/09/09 12:15:07;;;;;;;9.25;1.98;;;19.50;99.90;;;;;;5092374;27;20130;-45
2022/09/09 12:17:41;;;;;;;;;;;19.40;99.90;;;;;;5093724;27;20131;-46
2022/09/09 12:20:14;;;;;;;8.93;1.85;;;19.30;99.90;;;;;;5093105;27;20012;-45
2022/09/09 12:22:49;;;;;;;12.13;1.90;;;19.10;99.90;;;;;;5092775;27;20128;-46
2022/09/09 12:25:17;;;;;;;5.32;1.65;;;19.00;99.90;;;;;;5092134;27;20165;-46
2022/09/09 12:28:04;;;;;;;9.02;1.90;;;19.10;99.90;;;;;;5093989;27;20035;-45
2022/09/09 12:30:55;;;;;;;9.05;1.60;;;19.30;99.90;;;;;;5094356;27;20053;-46
2022/09/09 12:33:21;;;;;;;7.88;2.10;;;19.40;99.90;;;;;;5081049;28;20056;-45
2022/09/09 12:36:13;;;;;;;7.22;1.50;;;20.10;99.90;;;;;;5090260;28;20050;-45
2022/09/09 12:38:43;;;;;;;6.75;1.42;;;20.30;99.90;;;;;;5092430;27;20396;-46
2022/09/09 12:41:24;;;;;;;7.68;1.40;;;20.00;99.90;;;;;;5092067;27;20492;-46
2022/09/09 12:43:50;;;;;;;7.07;1.92;;;20.20;99.90;;;;;;5093456;27;20039;-46
2022/09/09 12:46:33;;;;;;;7.80;1.67;;;20.40;99.90;;;;;;5091420;27;20088;-47
2022/09/09 12:48:59;;;;;;;7.25;1.70;;;20.80;99.90;;;;;;5093608;27;20040;-45
2022/09/09 12:51:33;;;;;;;5.70;1.65;;;20.40;99.90;;;;;;5092488;27;20116;-47
2022/09/09 12:53:59;;;;;;;9.77;1.88;;;20.60;99.90;;;;;;5093335;27;20116;-46
2022/09/09 12:56:29;;;;;;;5.85;1.60;;;20.50;99.90;;;;;;5092799;27;20584;-46
2022/09/09 12:58:57;;;;;;;8.82;2.42;;;20.30;99.90;;;;;;5093025;28;20047;-48
2022/09/09 13:01:35;;;;;;;9.70;2.10;;;20.10;99.90;;;;;;5093317;28;20138;-45
2022/09/09 13:04:01;;;;;;;7.53;1.77;;;20.40;99.90;;;;;;5091849;27;20169;-48
2022/09/09 13:06:32;;;;;;;12.07;1.40;;;20.40;99.90;;;;;;5094458;27;20047;-44